sensor_id;sensor_type;location;lat;lon;timestamp;temperature;humidity
36594;DHT22;22603;47.900;8.146;2023-01-08T00:01:12;-0.30;99.90
36594;DHT22;22603;47.900;8.146;2023-01-08T00:04:00;-0.30;99.90
36594;DHT22;22603;47.900;8.146;2023-01-08T00:06:47;-0.30;99.90
36594;DHT22;22603;47.900;8.146;2023-01-08T00:09:37;-0.40;99.90
36594;DHT22;22603;47.900;8.146;2023-01-08T00:12:24;-0.40;99.90
36594;DHT22;22603;47.900;8.146;2023-01-08T00:15:11;-0.40;99.90
36594;DHT22;22603;47.900;8.146;2023-01-08T00:18:00;-0.40;99.90
36594;DHT22;22603;47.900;8.146;2023-01-08T00:20:49;-0.40;99.90
36594;DHT22;22603;47.900;8.146;2023-01-08T00:23:36;-0.40;99.90
36594;DHT22;22603;47.900;8.146;2023-01-08T00:26:23;-0.40;99.90
36594;DHT22;22603;47.900;8.146;2023-01-08T00:29:10;-0.40;99.90
36594;DHT22;22603;47.900;8.146;2023-01-08T00:31:59;-0.50;99.90
36594;DHT22;22603;47.900;8.146;2023-01-08T00:34:48;-0.50;99.90
36594;DHT22;22603;47.900;8.146;2023-01-08T00:37:35;-0.50;99.90
36594;DHT22;22603;47.900;8.146;2023-01-08T00:40:22;-0.50;99.90
36594;DHT22;22603;47.900;8.146;2023-01-08T00:43:11;-0.50;99.90
36594;DHT22;22603;47.900;8.146;2023-01-08T00:45:58;-0.50;99.90
36594;DHT22;22603;47.900;8.146;2023-01-08T00:48:46;-0.40;99.90
36594;DHT22;22603;47.900;8.146;2023-01-08T00:51:34;-0.40;99.90
36594;DHT22;22603;47.900;8.146;2023-01-08T00:54:21;-0.40;99.90
36594;DHT22;22603;47.900;8.146;2023-01-08T00:57:08;-0.40;99.90
36594;DHT22;22603;47.900;8.146;2023-01-08T00:59:55;-0.30;99.90
36594;DHT22;22603;47.900;8.146;2023-01-08T01:02:42;-0.30;99.90
36594;DHT22;22603;47.900;8.146;2023-01-08T01:05:30;-0.30;99.90
36594;DHT22;22603;47.900;8.146;2023-01-08T01:08:18;-0.30;99.90
36594;DHT22;22603;47.900;8.146;2023-01-08T01:11:06;-0.30;99.90
36594;DHT22;22603;47.900;8.146;2023-01-08T01:13:54;-0.30;99.90
36594;DHT22;22603;47.900;8.146;2023-01-08T01:16:41;-0.20;99.90
36594;DHT22;22603;47.900;8.146;2023-01-08T01:19:29;-0.20;99.90
36594;DHT22;22603;47.900;8.146;2023-01-08T01:22:16;-0.20;99.90
36594;DHT22;22603;47.900;8.146;2023-01-08T01:25:06;-0.20;99.90
36594;DHT22;22603;47.900;8.146;2023-01-08T01:27:53;-0.20;99.90
36594;DHT22;22603;47.900;8.146;2023-01-08T01:30:40;-0.10;99.90
36594;DHT22;22603;47.900;8.146;2023-01-08T01:33:27;-0.10;99.90
36594;DHT22;22603;47.900;8.146;2023-01-08T01:36:15;-0.10;99.90
36594;DHT22;22603;47.900;8.146;2023-01-08T01:39:03;-0.20;99.90
36594;DHT22;22603;47.900;8.146;2023-01-08T01:41:52;-0.20;99.90
36594;DHT22;22603;47.900;8.146;2023-01-08T01:44:41;-0.10;99.90
36594;DHT22;22603;47.900;8.146;2023-01-08T01:47:31;-0.10;99.90
36594;DHT22;22603;47.900;8.146;2023-01-08T01:50:21;-0.10;99.90
36594;DHT22;22603;47.900;8.146;2023-01-08T01:53:13;-0.10;99.90
36594;DHT22;22603;47.900;8.146;2023-01-08T01:56:04;-0.10;99.90
36594;DHT22;22603;47.900;8.146;2023-01-08T01:58:52;0.00;99.90
36594;DHT22;22603;47.900;8.146;2023-01-08T02:01:41;0.00;99.90
36594;DHT22;22603;47.900;8.146;2023-01-08T02:04:28;0.00;99.90
36594;DHT22;22603;47.900;8.146;2023-01-08T02:07:19;0.00;99.90
36594;DHT22;22603;47.900;8.146;2023-01-08T02:10:11;0.10;99.90
36594;DHT22;22603;47.900;8.146;2023-01-08T02:13:05;0.20;99.90
36594;DHT22;22603;47.900;8.146;2023-01-08T02:15:57;0.20;99.90
36594;DHT22;22603;47.900;8.146;2023-01-08T02:18:49;0.20;99.90
36594;DHT22;22603;47.900;8.146;2023-01-08T02:21:45;0.20;99.90
36594;DHT22;22603;47.900;8.146;2023-01-08T02:24:46;0.20;99.90
36594;DHT22;22603;47.900;8.146;2023-01-08T02:27:41;0.30;99.90
36594;DHT22;22603;47.900;8.146;2023-01-08T02:30:29;0.30;99.90
36594;DHT22;22603;47.900;8.146;2023-01-08T02:33:17;0.40;99.90
36594;DHT22;22603;47.900;8.146;2023-01-08T02:36:25;0.40;99.90
36594;DHT22;22603;47.900;8.146;2023-01-08T02:39:19;0.50;99.90
36594;DHT22;22603;47.900;8.146;2023-01-08T02:42:11;0.60;99.90
36594;DHT22;22603;47.900;8.146;2023-01-08T02:45:08;0.60;99.90
36594;DHT22;22603;47.900;8.146;2023-01-08T02:48:01;0.70;99.90
36594;DHT22;22603;47.900;8.146;2023-01-08T02:50:53;0.70;99.90
36594;DHT22;22603;47.900;8.146;2023-01-08T02:53:44;0.70;99.90
36594;DHT22;22603;47.900;8.146;2023-01-08T02:56:35;0.80;99.90
36594;DHT22;22603;47.900;8.146;2023-01-08T02:59:25;0.90;99.90
36594;DHT22;22603;47.900;8.146;2023-01-08T03:02:14;0.90;99.90
36594;DHT22;22603;47.900;8.146;2023-01-08T03:05:08;1.00;99.90
36594;DHT22;22603;47.900;8.146;2023-01-08T03:07:56;1.10;99.90
36594;DHT22;22603;47.900;8.146;2023-01-08T03:10:47;1.10;99.90
36594;DHT22;22603;47.900;8.146;2023-01-08T03:13:39;1.10;99.90
36594;DHT22;22603;47.900;8.146;2023-01-08T03:16:32;1.10;99.90
36594;DHT22;22603;47.900;8.146;2023-01-08T03:19:24;1.10;99.90
36594;DHT22;22603;47.900;8.146;2023-01-08T03:22:14;1.10;99.90
36594;DHT22;22603;47.900;8.146;2023-01-08T03:25:04;1.10;99.90
36594;DHT22;22603;47.900;8.146;2023-01-08T03:27:55;1.20;99.90
36594;DHT22;22603;47.900;8.146;2023-01-08T03:30:44;1.20;99.90
36594;DHT22;22603;47.900;8.146;2023-01-08T03:33:33;1.20;99.90
36594;DHT22;22603;47.900;8.146;2023-01-08T03:36:24;1.20;99.90
36594;DHT22;22603;47.900;8.146;2023-01-08T03:39:16;1.30;99.90
36594;DHT22;22603;47.900;8.146;2023-01-08T03:42:08;1.30;99.90
36594;DHT22;22603;47.900;8.146;2023-01-08T03:44:56;1.40;99.90
36594;DHT22;22603;47.900;8.146;2023-01-08T03:47:43;1.40;99.90
36594;DHT22;22603;47.900;8.146;2023-01-08T03:50:31;1.40;99.90
36594;DHT22;22603;47.900;8.146;2023-01-08T03:53:20;1.50;99.90
36594;DHT22;22603;47.900;8.146;2023-01-08T03:56:07;1.50;99.90
36594;DHT22;22603;47.900;8.146;2023-01-08T03:58:55;1.60;99.90
36594;DHT22;22603;47.900;8.146;2023-01-08T04:01:42;1.50;99.90
36594;DHT22;22603;47.900;8.146;2023-01-08T04:04:30;1.70;99.90
36594;DHT22;22603;47.900;8.146;2023-01-08T04:07:17;1.80;99.90
36594;DHT22;22603;47.900;8.146;2023-01-08T04:10:06;1.80;99.90
36594;DHT22;22603;47.900;8.146;2023-01-08T04:12:53;2.10;99.90
36594;DHT22;22603;47.900;8.146;2023-01-08T04:15:46;2.10;99.90
36594;DHT22;22603;47.900;8.146;2023-01-08T04:18:34;2.20;99.90
36594;DHT22;22603;47.900;8.146;2023-01-08T04:21:21;2.40;99.90
36594;DHT22;22603;47.900;8.146;2023-01-08T04:24:10;2.50;99.90
36594;DHT22;22603;47.900;8.146;2023-01-08T04:26:59;2.50;99.90
36594;DHT22;22603;47.900;8.146;2023-01-08T04:29:46;2.50;99.90
36594;DHT22;22603;47.900;8.146;2023-01-08T04:32:33;2.60;99.90
36594;DHT22;22603;47.900;8.146;2023-01-08T04:35:21;2.70;99.90
36594;DHT22;22603;47.900;8.146;2023-01-08T04:38:07;2.70;99.90
36594;DHT22;22603;47.900;8.146;2023-01-08T04:40:56;2.90;99.90
36594;DHT22;22603;47.900;8.146;2023-01-08T04:43:45;3.10;99.90
36594;DHT22;22603;47.900;8.146;2023-01-08T04:46:32;3.30;99.90
36594;DHT22;22603;47.900;8.146;2023-01-08T04:49:20;3.40;99.90
36594;DHT22;22603;47.900;8.146;2023-01-08T04:52:08;3.40;99.90
36594;DHT22;22603;47.900;8.146;2023-01-08T04:54:55;3.50;99.90
36594;DHT22;22603;47.900;8.146;2023-01-08T04:57:43;3.40;99.90
36594;DHT22;22603;47.900;8.146;2023-01-08T05:00:31;3.50;99.90
36594;DHT22;22603;47.900;8.146;2023-01-08T05:03:19;3.50;99.90
36594;DHT22;22603;47.900;8.146;2023-01-08T05:06:06;3.50;99.90
36594;DHT22;22603;47.900;8.146;2023-01-08T05:08:54;3.70;99.90
36594;DHT22;22603;47.900;8.146;2023-01-08T05:11:41;3.70;99.90
36594;DHT22;22603;47.900;8.146;2023-01-08T05:14:29;3.70;99.90
36594;DHT22;22603;47.900;8.146;2023-01-08T05:17:18;3.70;99.90
36594;DHT22;22603;47.900;8.146;2023-01-08T05:20:06;3.70;99.90
36594;DHT22;22603;47.900;8.146;2023-01-08T05:22:53;3.90;99.90
36594;DHT22;22603;47.900;8.146;2023-01-08T05:25:41;4.00;99.90
36594;DHT22;22603;47.900;8.146;2023-01-08T05:28:28;4.00;99.90
36594;DHT22;22603;47.900;8.146;2023-01-08T05:31:16;4.00;99.90
36594;DHT22;22603;47.900;8.146;2023-01-08T05:34:06;3.90;99.90
36594;DHT22;22603;47.900;8.146;2023-01-08T05:36:53;3.90;99.90
36594;DHT22;22603;47.900;8.146;2023-01-08T05:39:40;3.90;99.90
36594;DHT22;22603;47.900;8.146;2023-01-08T05:42:27;3.90;99.90
36594;DHT22;22603;47.900;8.146;2023-01-08T05:45:14;3.90;99.90
36594;DHT22;22603;47.900;8.146;2023-01-08T05:48:04;4.20;99.90
36594;DHT22;22603;47.900;8.146;2023-01-08T05:50:53;4.40;99.90
36594;DHT22;22603;47.900;8.146;2023-01-08T05:53:40;4.40;99.90
36594;DHT22;22603;47.900;8.146;2023-01-08T05:56:27;4.40;99.90
36594;DHT22;22603;47.900;8.146;2023-01-08T05:59:16;4.30;99.90
36594;DHT22;22603;47.900;8.146;2023-01-08T06:02:03;4.30;99.90
36594;DHT22;22603;47.900;8.146;2023-01-08T06:04:50;4.50;99.90
36594;DHT22;22603;47.900;8.146;2023-01-08T06:07:39;4.50;99.90
36594;DHT22;22603;47.900;8.146;2023-01-08T06:10:27;4.50;99.90
36594;DHT22;22603;47.900;8.146;2023-01-08T06:13:14;4.50;99.90
36594;DHT22;22603;47.900;8.146;2023-01-08T06:16:01;4.50;99.90
36594;DHT22;22603;47.900;8.146;2023-01-08T06:18:48;4.50;99.90
36594;DHT22;22603;47.900;8.146;2023-01-08T06:21:35;4.50;99.90
36594;DHT22;22603;47.900;8.146;2023-01-08T06:24:24;4.40;99.90
36594;DHT22;22603;47.900;8.146;2023-01-08T06:27:11;4.40;99.90
36594;DHT22;22603;47.900;8.146;2023-01-08T06:29:58;4.50;99.90
36594;DHT22;22603;47.900;8.146;2023-01-08T06:32:45;4.40;99.90
36594;DHT22;22603;47.900;8.146;2023-01-08T06:35:32;4.50;99.90
36594;DHT22;22603;47.900;8.146;2023-01-08T06:38:19;4.50;99.90
36594;DHT22;22603;47.900;8.146;2023-01-08T06:41:09;4.50;99.90
36594;DHT22;22603;47.900;8.146;2023-01-08T06:43:57;4.50;99.90
36594;DHT22;22603;47.900;8.146;2023-01-08T06:46:44;4.40;99.90
36594;DHT22;22603;47.900;8.146;2023-01-08T06:49:31;4.50;99.90
36594;DHT22;22603;47.900;8.146;2023-01-08T06:52:19;4.50;99.90
36594;DHT22;22603;47.900;8.146;2023-01-08T06:55:08;4.50;99.90
36594;DHT22;22603;47.900;8.146;2023-01-08T06:57:57;4.40;99.90
36594;DHT22;22603;47.900;8.146;2023-01-08T07:00:45;4.40;99.90
36594;DHT22;22603;47.900;8.146;2023-01-08T07:03:32;4.30;99.90
36594;DHT22;22603;47.900;8.146;2023-01-08T07:06:20;4.40;99.90
36594;DHT22;22603;47.900;8.146;2023-01-08T07:09:11;4.40;99.90
36594;DHT22;22603;47.900;8.146;2023-01-08T07:11:58;4.40;99.90
36594;DHT22;22603;47.900;8.146;2023-01-08T07:14:46;4.40;99.90
36594;DHT22;22603;47.900;8.146;2023-01-08T07:17:33;4.40;99.90
36594;DHT22;22603;47.900;8.146;2023-01-08T07:20:20;4.50;99.90
36594;DHT22;22603;47.900;8.146;2023-01-08T07:23:09;4.50;99.90
36594;DHT22;22603;47.900;8.146;2023-01-08T07:25:59;4.60;99.90
36594;DHT22;22603;47.900;8.146;2023-01-08T07:28:46;4.60;99.90
36594;DHT22;22603;47.900;8.146;2023-01-08T07:31:35;4.60;99.90
36594;DHT22;22603;47.900;8.146;2023-01-08T07:34:22;4.50;99.90
36594;DHT22;22603;47.900;8.146;2023-01-08T07:37:09;4.50;99.90
36594;DHT22;22603;47.900;8.146;2023-01-08T07:39:56;4.50;99.90
36594;DHT22;22603;47.900;8.146;2023-01-08T07:42:45;4.50;99.90
36594;DHT22;22603;47.900;8.146;2023-01-08T07:45:32;4.50;99.90
36594;DHT22;22603;47.900;8.146;2023-01-08T07:48:20;4.40;99.90
36594;DHT22;22603;47.900;8.146;2023-01-08T07:51:08;4.40;99.90
36594;DHT22;22603;47.900;8.146;2023-01-08T07:53:55;4.40;99.90
36594;DHT22;22603;47.900;8.146;2023-01-08T07:56:43;4.40;99.90
36594;DHT22;22603;47.900;8.146;2023-01-08T07:59:30;4.40;99.90
36594;DHT22;22603;47.900;8.146;2023-01-08T08:02:17;4.40;99.90
36594;DHT22;22603;47.900;8.146;2023-01-08T08:05:06;4.40;99.90
36594;DHT22;22603;47.900;8.146;2023-01-08T08:07:53;4.40;99.90
36594;DHT22;22603;47.900;8.146;2023-01-08T08:10:41;4.40;99.90
36594;DHT22;22603;47.900;8.146;2023-01-08T08:13:29;4.40;99.90
36594;DHT22;22603;47.900;8.146;2023-01-08T08:16:17;4.40;99.90
36594;DHT22;22603;47.900;8.146;2023-01-08T08:19:04;4.40;99.90
36594;DHT22;22603;47.900;8.146;2023-01-08T08:21:54;4.40;99.90
36594;DHT22;22603;47.900;8.146;2023-01-08T08:24:41;4.30;99.90
36594;DHT22;22603;47.900;8.146;2023-01-08T08:27:29;4.40;99.90
36594;DHT22;22603;47.900;8.146;2023-01-08T08:30:19;4.40;99.90
36594;DHT22;22603;47.900;8.146;2023-01-08T08:33:09;4.40;99.90
36594;DHT22;22603;47.900;8.146;2023-01-08T08:35:56;4.40;99.90
36594;DHT22;22603;47.900;8.146;2023-01-08T08:38:45;4.50;99.90
36594;DHT22;22603;47.900;8.146;2023-01-08T08:41:32;4.50;99.90
36594;DHT22;22603;47.900;8.146;2023-01-08T08:44:19;4.60;99.90
36594;DHT22;22603;47.900;8.146;2023-01-08T08:47:06;4.60;99.90
36594;DHT22;22603;47.900;8.146;2023-01-08T08:49:54;4.60;99.90
36594;DHT22;22603;47.900;8.146;2023-01-08T08:52:41;4.70;99.90
36594;DHT22;22603;47.900;8.146;2023-01-08T08:55:32;4.80;99.90
36594;DHT22;22603;47.900;8.146;2023-01-08T08:58:19;4.80;99.90
36594;DHT22;22603;47.900;8.146;2023-01-08T09:01:07;4.80;99.90
36594;DHT22;22603;47.900;8.146;2023-01-08T09:03:54;4.90;99.90
36594;DHT22;22603;47.900;8.146;2023-01-08T09:06:41;4.90;99.90
36594;DHT22;22603;47.900;8.146;2023-01-08T09:09:28;5.00;99.90
36594;DHT22;22603;47.900;8.146;2023-01-08T09:12:17;5.00;99.90
36594;DHT22;22603;47.900;8.146;2023-01-08T09:15:04;5.00;99.90
36594;DHT22;22603;47.900;8.146;2023-01-08T09:17:52;5.00;99.90
36594;DHT22;22603;47.900;8.146;2023-01-08T09:20:40;5.10;99.90
36594;DHT22;22603;47.900;8.146;2023-01-08T09:23:27;5.10;99.90
36594;DHT22;22603;47.900;8.146;2023-01-08T09:26:14;5.10;99.90
36594;DHT22;22603;47.900;8.146;2023-01-08T09:29:03;5.10;99.90
36594;DHT22;22603;47.900;8.146;2023-01-08T09:31:50;5.10;99.90
36594;DHT22;22603;47.900;8.146;2023-01-08T09:34:37;5.20;99.90
36594;DHT22;22603;47.900;8.146;2023-01-08T09:37:24;5.20;99.90
36594;DHT22;22603;47.900;8.146;2023-01-08T09:40:14;5.20;99.90
36594;DHT22;22603;47.900;8.146;2023-01-08T09:43:03;5.20;99.90
36594;DHT22;22603;47.900;8.146;2023-01-08T09:45:57;5.20;99.90
36594;DHT22;22603;47.900;8.146;2023-01-08T09:48:45;5.20;99.90
36594;DHT22;22603;47.900;8.146;2023-01-08T09:51:34;5.20;99.90
36594;DHT22;22603;47.900;8.146;2023-01-08T09:54:24;5.20;99.90
36594;DHT22;22603;47.900;8.146;2023-01-08T09:57:14;5.20;99.90
36594;DHT22;22603;47.900;8.146;2023-01-08T10:00:03;5.20;99.90
36594;DHT22;22603;47.900;8.146;2023-01-08T10:02:53;5.20;99.90
36594;DHT22;22603;47.900;8.146;2023-01-08T10:05:41;5.20;99.90
36594;DHT22;22603;47.900;8.146;2023-01-08T10:08:28;5.30;99.90
36594;DHT22;22603;47.900;8.146;2023-01-08T10:11:15;5.30;99.90
36594;DHT22;22603;47.900;8.146;2023-01-08T10:14:04;5.30;99.90
36594;DHT22;22603;47.900;8.146;2023-01-08T10:16:55;5.30;99.90
36594;DHT22;22603;47.900;8.146;2023-01-08T10:19:45;5.30;99.90
36594;DHT22;22603;47.900;8.146;2023-01-08T10:22:32;5.30;99.90
36594;DHT22;22603;47.900;8.146;2023-01-08T10:25:21;5.30;99.90
36594;DHT22;22603;47.900;8.146;2023-01-08T10:28:18;5.30;99.90
36594;DHT22;22603;47.900;8.146;2023-01-08T10:31:13;5.30;99.90
36594;DHT22;22603;47.900;8.146;2023-01-08T10:34:08;5.30;99.90
36594;DHT22;22603;47.900;8.146;2023-01-08T10:36:58;5.30;99.90
36594;DHT22;22603;47.900;8.146;2023-01-08T10:39:45;5.20;99.90
36594;DHT22;22603;47.900;8.146;2023-01-08T10:42:33;5.20;99.90
36594;DHT22;22603;47.900;8.146;2023-01-08T10:45:24;5.20;99.90
36594;DHT22;22603;47.900;8.146;2023-01-08T10:48:16;5.30;99.90
36594;DHT22;22603;47.900;8.146;2023-01-08T10:51:05;5.30;99.90
36594;DHT22;22603;47.900;8.146;2023-01-08T10:53:57;5.30;99.90
36594;DHT22;22603;47.900;8.146;2023-01-08T10:56:46;5.30;99.90
36594;DHT22;22603;47.900;8.146;2023-01-08T10:59:35;5.30;99.90
36594;DHT22;22603;47.900;8.146;2023-01-08T11:02:30;5.20;99.90
36594;DHT22;22603;47.900;8.146;2023-01-08T11:05:29;5.30;99.90
36594;DHT22;22603;47.900;8.146;2023-01-08T11:08:19;5.30;99.90
36594;DHT22;22603;47.900;8.146;2023-01-08T11:11:16;5.30;99.90
36594;DHT22;22603;47.900;8.146;2023-01-08T11:14:05;5.30;99.90
36594;DHT22;22603;47.900;8.146;2023-01-08T11:16:58;5.30;99.90
36594;DHT22;22603;47.900;8.146;2023-01-08T11:19:47;5.30;99.90
36594;DHT22;22603;47.900;8.146;2023-01-08T11:22:34;5.20;99.90
36594;DHT22;22603;47.900;8.146;2023-01-08T11:25:26;5.30;99.90
36594;DHT22;22603;47.900;8.146;2023-01-08T11:28:20;5.30;99.90
36594;DHT22;22603;47.900;8.146;2023-01-08T11:31:14;5.20;99.90
36594;DHT22;22603;47.900;8.146;2023-01-08T11:34:15;5.30;99.90
36594;DHT22;22603;47.900;8.146;2023-01-08T11:37:09;5.30;99.90
36594;DHT22;22603;47.900;8.146;2023-01-08T11:39:58;5.40;99.90
36594;DHT22;22603;47.900;8.146;2023-01-08T11:42:53;5.40;99.90
36594;DHT22;22603;47.900;8.146;2023-01-08T11:45:57;5.40;99.90
36594;DHT22;22603;47.900;8.146;2023-01-08T11:49:01;5.50;99.90
36594;DHT22;22603;47.900;8.146;2023-01-08T11:52:05;5.50;99.90
36594;DHT22;22603;47.900;8.146;2023-01-08T11:55:04;5.50;99.90
36594;DHT22;22603;47.900;8.146;2023-01-08T11:58:11;5.50;99.90
36594;DHT22;22603;47.900;8.146;2023-01-08T12:01:19;5.60;99.90
36594;DHT22;22603;47.900;8.146;2023-01-08T12:04:37;5.60;99.90
36594;DHT22;22603;47.900;8.146;2023-01-08T12:07:30;5.60;99.90
36594;DHT22;22603;47.900;8.146;2023-01-08T12:10:25;5.60;99.90
36594;DHT22;22603;47.900;8.146;2023-01-08T12:13:28;5.60;99.90
36594;DHT22;22603;47.900;8.146;2023-01-08T12:16:32;5.60;99.90
36594;DHT22;22603;47.900;8.146;2023-01-08T12:19:35;5.60;99.90
36594;DHT22;22603;47.900;8.146;2023-01-08T12:22:36;5.60;99.90
36594;DHT22;22603;47.900;8.146;2023-01-08T12:25:59;5.60;99.90
36594;DHT22;22603;47.900;8.146;2023-01-08T12:29:16;5.60;99.90
36594;DHT22;22603;47.900;8.146;2023-01-08T12:32:27;5.60;99.90
36594;DHT22;22603;47.900;8.146;2023-01-08T12:35:17;5.70;99.90
36594;DHT22;22603;47.900;8.146;2023-01-08T12:38:09;5.70;99.90
36594;DHT22;22603;47.900;8.146;2023-01-08T12:41:00;5.70;99.90
36594;DHT22;22603;47.900;8.146;2023-01-08T12:43:53;5.80;99.90
36594;DHT22;22603;47.900;8.146;2023-01-08T12:46:50;5.80;99.90
36594;DHT22;22603;47.900;8.146;2023-01-08T12:50:01;5.80;99.90
36594;DHT22;22603;47.900;8.146;2023-01-08T12:53:11;5.90;99.90
36594;DHT22;22603;47.900;8.146;2023-01-08T12:56:06;5.90;99.90
36594;DHT22;22603;47.900;8.146;2023-01-08T12:59:13;5.90;99.90
36594;DHT22;22603;47.900;8.146;2023-01-08T13:02:14;5.80;99.90
36594;DHT22;22603;47.900;8.146;2023-01-08T13:05:31;5.80;99.90
36594;DHT22;22603;47.900;8.146;2023-01-08T13:08:29;5.80;99.90
36594;DHT22;22603;47.900;8.146;2023-01-08T13:11:25;5.90;99.90
36594;DHT22;22603;47.900;8.146;2023-01-08T13:14:14;5.80;99.90
36594;DHT22;22603;47.900;8.146;2023-01-08T13:17:04;5.90;99.90
36594;DHT22;22603;47.900;8.146;2023-01-08T13:19:54;5.90;99.90
36594;DHT22;22603;47.900;8.146;2023-01-08T13:22:43;5.90;99.90
36594;DHT22;22603;47.900;8.146;2023-01-08T13:25:37;5.90;99.90
36594;DHT22;22603;47.900;8.146;2023-01-08T13:28:28;5.90;99.90
36594;DHT22;22603;47.900;8.146;2023-01-08T13:31:26;5.90;99.90
36594;DHT22;22603;47.900;8.146;2023-01-08T13:34:20;5.80;99.90
36594;DHT22;22603;47.900;8.146;2023-01-08T13:37:07;5.80;99.90
36594;DHT22;22603;47.900;8.146;2023-01-08T13:40:47;5.80;99.90
36594;DHT22;22603;47.900;8.146;2023-01-08T13:43:38;5.80;99.90
36594;DHT22;22603;47.900;8.146;2023-01-08T13:46:26;5.80;99.90
36594;DHT22;22603;47.900;8.146;2023-01-08T13:49:22;5.80;99.90
36594;DHT22;22603;47.900;8.146;2023-01-08T13:52:29;5.80;99.90
36594;DHT22;22603;47.900;8.146;2023-01-08T13:55:20;5.80;99.90
36594;DHT22;22603;47.900;8.146;2023-01-08T13:58:14;5.80;99.90
36594;DHT22;22603;47.900;8.146;2023-01-08T14:01:04;5.80;99.90
36594;DHT22;22603;47.900;8.146;2023-01-08T14:03:53;5.80;99.90
36594;DHT22;22603;47.900;8.146;2023-01-08T14:06:40;5.80;99.90
36594;DHT22;22603;47.900;8.146;2023-01-08T14:09:27;5.80;99.90
36594;DHT22;22603;47.900;8.146;2023-01-08T14:12:17;5.80;99.90
36594;DHT22;22603;47.900;8.146;2023-01-08T14:15:12;5.80;99.90
36594;DHT22;22603;47.900;8.146;2023-01-08T14:18:04;5.90;99.90
36594;DHT22;22603;47.900;8.146;2023-01-08T14:20:51;5.90;99.90
36594;DHT22;22603;47.900;8.146;2023-01-08T14:23:40;6.00;99.90
36594;DHT22;22603;47.900;8.146;2023-01-08T14:26:31;6.00;99.90
36594;DHT22;22603;47.900;8.146;2023-01-08T14:29:21;6.00;99.90
36594;DHT22;22603;47.900;8.146;2023-01-08T14:32:15;6.10;99.90
36594;DHT22;22603;47.900;8.146;2023-01-08T14:35:04;6.00;99.90
36594;DHT22;22603;47.900;8.146;2023-01-08T14:37:54;6.00;99.90
36594;DHT22;22603;47.900;8.146;2023-01-08T14:40:43;6.00;99.90
36594;DHT22;22603;47.900;8.146;2023-01-08T14:43:32;6.00;99.90
36594;DHT22;22603;47.900;8.146;2023-01-08T14:46:23;6.00;99.90
36594;DHT22;22603;47.900;8.146;2023-01-08T14:49:19;5.90;99.90
36594;DHT22;22603;47.900;8.146;2023-01-08T14:52:09;5.90;99.90
36594;DHT22;22603;47.900;8.146;2023-01-08T14:55:00;5.90;99.90
36594;DHT22;22603;47.900;8.146;2023-01-08T14:57:50;5.90;99.90
36594;DHT22;22603;47.900;8.146;2023-01-08T15:00:38;5.90;99.90
36594;DHT22;22603;47.900;8.146;2023-01-08T15:03:31;5.80;99.90
36594;DHT22;22603;47.900;8.146;2023-01-08T15:06:28;5.80;99.90
36594;DHT22;22603;47.900;8.146;2023-01-08T15:09:23;5.80;99.90
36594;DHT22;22603;47.900;8.146;2023-01-08T15:12:22;5.80;99.90
36594;DHT22;22603;47.900;8.146;2023-01-08T15:15:10;5.80;99.90
36594;DHT22;22603;47.900;8.146;2023-01-08T15:17:57;5.80;99.90
36594;DHT22;22603;47.900;8.146;2023-01-08T15:20:44;5.80;99.90
36594;DHT22;22603;47.900;8.146;2023-01-08T15:23:38;5.80;99.90
36594;DHT22;22603;47.900;8.146;2023-01-08T15:26:26;5.80;99.90
36594;DHT22;22603;47.900;8.146;2023-01-08T15:29:17;5.70;99.90
36594;DHT22;22603;47.900;8.146;2023-01-08T15:32:08;5.70;99.90
36594;DHT22;22603;47.900;8.146;2023-01-08T15:34:56;5.70;99.90
36594;DHT22;22603;47.900;8.146;2023-01-08T15:37:44;5.70;99.90
36594;DHT22;22603;47.900;8.146;2023-01-08T15:40:32;5.70;99.90
36594;DHT22;22603;47.900;8.146;2023-01-08T15:43:20;5.70;99.90
36594;DHT22;22603;47.900;8.146;2023-01-08T15:46:10;5.70;99.90
36594;DHT22;22603;47.900;8.146;2023-01-08T15:48:57;5.70;99.90
36594;DHT22;22603;47.900;8.146;2023-01-08T15:51:46;5.70;99.90
36594;DHT22;22603;47.900;8.146;2023-01-08T15:54:35;5.70;99.90
36594;DHT22;22603;47.900;8.146;2023-01-08T15:57:25;5.70;99.90
36594;DHT22;22603;47.900;8.146;2023-01-08T16:00:16;5.70;99.90
36594;DHT22;22603;47.900;8.146;2023-01-08T16:03:03;5.70;99.90
36594;DHT22;22603;47.900;8.146;2023-01-08T16:05:52;5.70;99.90
36594;DHT22;22603;47.900;8.146;2023-01-08T16:08:39;5.70;99.90
36594;DHT22;22603;47.900;8.146;2023-01-08T16:11:30;5.60;99.90
36594;DHT22;22603;47.900;8.146;2023-01-08T16:14:19;5.60;99.90
36594;DHT22;22603;47.900;8.146;2023-01-08T16:17:06;5.60;99.90
36594;DHT22;22603;47.900;8.146;2023-01-08T16:19:54;5.60;99.90
36594;DHT22;22603;47.900;8.146;2023-01-08T16:22:41;5.50;99.90
36594;DHT22;22603;47.900;8.146;2023-01-08T16:25:28;5.50;99.90
36594;DHT22;22603;47.900;8.146;2023-01-08T16:28:16;5.40;99.90
36594;DHT22;22603;47.900;8.146;2023-01-08T16:31:06;5.40;99.90
36594;DHT22;22603;47.900;8.146;2023-01-08T16:33:53;5.40;99.90
36594;DHT22;22603;47.900;8.146;2023-01-08T16:36:41;5.40;99.90
36594;DHT22;22603;47.900;8.146;2023-01-08T16:39:29;5.40;99.90
36594;DHT22;22603;47.900;8.146;2023-01-08T16:42:17;5.30;99.90
36594;DHT22;22603;47.900;8.146;2023-01-08T16:45:05;5.30;99.90
36594;DHT22;22603;47.900;8.146;2023-01-08T16:47:54;5.30;99.90
36594;DHT22;22603;47.900;8.146;2023-01-08T16:50:42;5.30;99.90
36594;DHT22;22603;47.900;8.146;2023-01-08T16:53:30;5.30;99.90
36594;DHT22;22603;47.900;8.146;2023-01-08T16:56:17;5.30;99.90
36594;DHT22;22603;47.900;8.146;2023-01-08T16:59:04;5.30;99.90
36594;DHT22;22603;47.900;8.146;2023-01-08T17:02:08;5.30;99.90
36594;DHT22;22603;47.900;8.146;2023-01-08T17:04:57;5.30;99.90
36594;DHT22;22603;47.900;8.146;2023-01-08T17:07:44;5.30;99.90
36594;DHT22;22603;47.900;8.146;2023-01-08T17:10:31;5.30;99.90
36594;DHT22;22603;47.900;8.146;2023-01-08T17:13:18;5.30;99.90
36594;DHT22;22603;47.900;8.146;2023-01-08T17:16:06;5.40;99.90
36594;DHT22;22603;47.900;8.146;2023-01-08T17:18:55;5.40;99.90
36594;DHT22;22603;47.900;8.146;2023-01-08T17:21:44;5.40;99.90
36594;DHT22;22603;47.900;8.146;2023-01-08T17:24:32;5.40;99.90
36594;DHT22;22603;47.900;8.146;2023-01-08T17:27:19;5.30;99.90
36594;DHT22;22603;47.900;8.146;2023-01-08T17:30:08;5.30;99.90
36594;DHT22;22603;47.900;8.146;2023-01-08T17:32:55;5.30;99.90
36594;DHT22;22603;47.900;8.146;2023-01-08T17:35:42;5.30;99.90
36594;DHT22;22603;47.900;8.146;2023-01-08T17:38:30;5.30;99.90
36594;DHT22;22603;47.900;8.146;2023-01-08T17:41:18;5.20;99.90
36594;DHT22;22603;47.900;8.146;2023-01-08T17:44:23;5.20;99.90
36594;DHT22;22603;47.900;8.146;2023-01-08T17:47:11;5.20;99.90
36594;DHT22;22603;47.900;8.146;2023-01-08T17:49:58;5.20;99.90
36594;DHT22;22603;47.900;8.146;2023-01-08T17:52:46;5.20;99.90
36594;DHT22;22603;47.900;8.146;2023-01-08T17:55:35;5.20;99.90
36594;DHT22;22603;47.900;8.146;2023-01-08T17:58:22;5.10;99.90
36594;DHT22;22603;47.900;8.146;2023-01-08T18:01:09;5.00;99.90
36594;DHT22;22603;47.900;8.146;2023-01-08T18:03:57;5.00;99.90
36594;DHT22;22603;47.900;8.146;2023-01-08T18:06:44;5.00;99.90
36594;DHT22;22603;47.900;8.146;2023-01-08T18:09:31;5.00;99.90
36594;DHT22;22603;47.900;8.146;2023-01-08T18:12:22;4.90;99.90